createdAt,value
2023-01-19T00:02:57.679Z,2.67
2023-01-19T00:07:03.226Z,2.65
2023-01-19T00:11:06.339Z,2.63
2023-01-19T00:15:09.629Z,2.71
2023-01-19T00:19:12.615Z,2.79
2023-01-19T00:23:16.540Z,2.70
2023-01-19T00:27:22.408Z,2.62
2023-01-19T00:31:25.288Z,2.69
2023-01-19T00:35:32.383Z,2.64
2023-01-19T00:39:35.175Z,2.55
2023-01-19T00:43:38.010Z,2.55
2023-01-19T00:47:41.065Z,2.61
2023-01-19T00:51:43.827Z,2.60
2023-01-19T00:55:46.791Z,2.50
2023-01-19T00:59:49.707Z,2.51
2023-01-19T01:03:53.540Z,2.55
2023-01-19T01:08:01.817Z,2.60
2023-01-19T01:12:07.283Z,2.65
2023-01-19T01:16:16.592Z,2.68
2023-01-19T01:20:22.846Z,2.70
2023-01-19T01:24:26.135Z,2.66
2023-01-19T01:28:28.904Z,2.73
2023-01-19T01:32:31.628Z,2.72
2023-01-19T01:36:35.605Z,2.63
2023-01-19T01:40:41.333Z,2.48
2023-01-19T01:44:53.049Z,2.31
2023-01-19T01:49:13.201Z,2.30
2023-01-19T01:53:16.139Z,2.30
2023-01-19T01:57:23.140Z,2.24
2023-01-19T02:01:50.552Z,2.28
2023-01-19T02:05:57.603Z,2.45
2023-01-19T02:10:19.063Z,2.58
2023-01-19T02:14:21.773Z,2.67
2023-01-19T02:18:28.743Z,2.76
2023-01-19T02:22:38.578Z,2.80
2023-01-19T02:26:55.390Z,2.73
2023-01-19T02:30:58.219Z,2.72
2023-01-19T02:35:01.412Z,2.69
2023-01-19T02:39:05.839Z,2.65
2023-01-19T02:43:09.402Z,2.70
2023-01-19T02:47:13.178Z,2.61
2023-01-19T02:51:21.099Z,2.46
2023-01-19T02:55:28.494Z,2.42
2023-01-19T03:00:07.072Z,2.40
2023-01-19T03:04:40.746Z,2.35
2023-01-19T03:09:04.373Z,2.36
2023-01-19T03:13:07.018Z,2.39
2023-01-19T03:17:11.895Z,2.33
2023-01-19T03:21:19.636Z,2.30
2023-01-19T03:25:31.409Z,2.30
2023-01-19T03:29:36.705Z,2.34
2023-01-19T03:33:45.171Z,2.34
2023-01-19T03:37:50.666Z,2.32
2023-01-19T03:41:58.908Z,2.30
2023-01-19T03:46:05.511Z,2.30
2023-01-19T03:50:14.952Z,2.32
2023-01-19T03:54:17.687Z,2.36
2023-01-19T03:58:20.427Z,2.38
2023-01-19T04:02:24.576Z,2.37
2023-01-19T04:06:28.393Z,2.33
2023-01-19T04:10:32.018Z,2.28
2023-01-19T04:14:34.785Z,2.24
2023-01-19T04:18:37.989Z,2.26
2023-01-19T04:22:40.789Z,2.20
2023-01-19T04:26:43.871Z,2.13
2023-01-19T04:30:50.874Z,2.06
2023-01-19T04:34:56.103Z,2.02
2023-01-19T04:38:59.474Z,1.94
2023-01-19T04:43:02.790Z,1.81
2023-01-19T04:47:06.672Z,1.74
2023-01-19T04:51:09.978Z,1.68
2023-01-19T04:55:14.431Z,1.65
2023-01-19T04:59:17.207Z,1.64
2023-01-19T05:03:21.468Z,1.65
2023-01-19T05:07:24.269Z,1.68
2023-01-19T05:11:27.666Z,1.73
2023-01-19T05:15:30.389Z,1.81
2023-01-19T05:19:50.768Z,1.89
2023-01-19T05:23:53.506Z,1.93
2023-01-19T05:28:08.711Z,1.99
2023-01-19T05:32:12.009Z,2.02
2023-01-19T05:36:14.810Z,2.07
2023-01-19T05:40:17.508Z,2.11
2023-01-19T05:44:37.795Z,2.04
2023-01-19T05:48:40.626Z,2.02
2023-01-19T05:52:43.315Z,1.92
2023-01-19T05:56:46.068Z,1.89
2023-01-19T06:00:49.381Z,1.76
2023-01-19T06:04:52.166Z,1.75
2023-01-19T06:08:54.933Z,1.73
2023-01-19T06:12:57.724Z,1.74
2023-01-19T06:17:00.618Z,1.72
2023-01-19T06:21:06.187Z,1.73
2023-01-19T06:25:09.421Z,1.69
2023-01-19T06:29:14.863Z,1.59
2023-01-19T06:33:18.694Z,1.56
2023-01-19T06:37:21.759Z,1.48
2023-01-19T06:41:38.958Z,1.43
2023-01-19T06:45:41.903Z,1.39
2023-01-19T06:49:51.942Z,1.35
2023-01-19T06:53:54.735Z,1.39
2023-01-19T06:57:58.994Z,1.40
2023-01-19T07:02:26.511Z,1.44
2023-01-19T07:06:27.695Z,1.44
2023-01-19T07:11:26.030Z,1.43
2023-01-19T07:14:57.920Z,1.43
2023-01-19T07:19:01.052Z,1.42
2023-01-19T07:23:04.364Z,1.38
2023-01-19T07:27:07.151Z,1.33
2023-01-19T07:31:10.469Z,1.34
2023-01-19T07:35:13.286Z,1.32
2023-01-19T07:39:16.296Z,1.24
2023-01-19T07:43:19.815Z,1.13
2023-01-19T07:47:26.594Z,1.02
2023-01-19T07:51:29.763Z,0.95
2023-01-19T07:55:32.689Z,0.84
2023-01-19T07:59:35.428Z,0.79
2023-01-19T08:03:38.751Z,0.78
2023-01-19T08:08:09.386Z,0.74
2023-01-19T08:12:12.087Z,0.71
2023-01-19T08:16:15.198Z,0.73
2023-01-19T08:20:17.977Z,0.80
2023-01-19T08:24:22.990Z,0.86
2023-01-19T08:28:26.117Z,0.92
2023-01-19T08:32:33.548Z,1.07
2023-01-19T08:36:36.328Z,1.16
2023-01-19T08:41:02.607Z,1.29
2023-01-19T08:45:09.792Z,1.47
2023-01-19T08:49:15.015Z,1.64
2023-01-19T08:53:21.611Z,1.79
2023-01-19T08:57:26.100Z,1.91
2023-01-19T09:05:56.031Z,2.20
2023-01-19T09:09:59.587Z,2.33
2023-01-19T09:14:04.290Z,2.39
2023-01-19T09:18:15.311Z,2.47
2023-01-19T09:22:19.301Z,2.54
2023-01-19T09:26:23.791Z,2.58
2023-01-19T09:30:27.802Z,2.60
2023-01-19T09:34:31.474Z,2.58
2023-01-19T09:38:34.475Z,2.62
2023-01-19T09:42:43.932Z,2.74
2023-01-19T09:46:46.931Z,2.87
2023-01-19T09:50:50.298Z,2.99
2023-01-19T09:54:56.867Z,3.05
2023-01-19T09:59:00.906Z,3.08
2023-01-19T10:03:16.703Z,3.08
2023-01-19T10:07:26.433Z,3.09
2023-01-19T10:11:53.021Z,3.10
2023-01-19T10:16:21.258Z,3.06
2023-01-19T10:20:30.463Z,3.12
2023-01-19T10:24:41.719Z,3.16
2023-01-19T10:28:47.011Z,3.11
2023-01-19T10:32:51.139Z,3.13
2023-01-19T10:37:02.814Z,3.22
2023-01-19T10:41:13.356Z,3.26
2023-01-19T10:45:24.464Z,3.25
2023-01-19T10:49:38.121Z,3.31
2023-01-19T10:53:44.059Z,3.37
2023-01-19T10:57:49.798Z,3.49
2023-01-19T11:02:18.298Z,3.46
2023-01-19T11:06:24.786Z,3.40
2023-01-19T11:10:30.152Z,3.43
2023-01-19T11:14:33.019Z,3.44
2023-01-19T11:18:38.807Z,3.40
2023-01-19T11:22:41.747Z,3.40
2023-01-19T11:26:48.116Z,3.47
2023-01-19T11:30:56.898Z,3.49
2023-01-19T11:35:22.907Z,3.46
2023-01-19T11:39:28.787Z,3.44
2023-01-19T11:43:47.443Z,3.44
2023-01-19T11:47:52.867Z,3.48
2023-01-19T11:52:06.819Z,3.53
2023-01-19T11:56:15.115Z,3.55
2023-01-19T12:00:54.753Z,3.61
2023-01-19T12:05:06.502Z,3.62
2023-01-19T12:09:19.401Z,3.59
2023-01-19T12:13:25.219Z,3.60
2023-01-19T12:17:38.205Z,3.67
2023-01-19T12:21:41.965Z,3.54
2023-01-19T12:26:02.542Z,3.52
2023-01-19T12:30:17.458Z,3.61
2023-01-19T12:34:27.271Z,3.59
2023-01-19T12:38:37.718Z,3.59
2023-01-19T12:42:51.378Z,3.57
2023-01-19T12:46:56.055Z,3.68
2023-01-19T12:50:59.341Z,3.73
2023-01-19T12:55:14.580Z,3.71
2023-01-19T12:59:26.933Z,3.68
2023-01-19T13:03:29.756Z,3.72
2023-01-19T13:08:06.876Z,3.75
2023-01-19T13:12:26.088Z,3.74
2023-01-19T13:16:28.825Z,3.67
2023-01-19T13:20:46.746Z,3.62
2023-01-19T13:25:12.535Z,3.57
2023-01-19T13:29:40.517Z,3.43
2023-01-19T13:33:53.986Z,3.39
2023-01-19T13:38:02.846Z,3.35
2023-01-19T13:42:15.074Z,3.29
2023-01-19T13:46:19.579Z,3.26
2023-01-19T13:50:25.317Z,3.25
2023-01-19T13:54:28.820Z,3.23
2023-01-19T13:58:32.103Z,3.18
2023-01-19T14:02:35.144Z,3.20
2023-01-19T14:06:44.783Z,3.20
2023-01-19T14:11:02.491Z,3.15
2023-01-19T14:15:13.021Z,3.15
2023-01-19T14:19:15.880Z,3.19
2023-01-19T14:23:41.795Z,3.23
2023-01-19T14:27:44.649Z,3.28
2023-01-19T14:32:11.382Z,3.36
2023-01-19T14:36:16.809Z,3.45
2023-01-19T14:40:22.513Z,3.53
2023-01-19T14:44:33.877Z,3.59
2023-01-19T14:48:37.056Z,3.64
2023-01-19T14:52:43.715Z,3.63
2023-01-19T14:56:48.182Z,3.58
2023-01-19T15:00:55.709Z,3.49
2023-01-19T15:05:01.665Z,3.12
2023-01-19T15:09:04.775Z,2.62
2023-01-19T15:13:18.984Z,2.26
2023-01-19T15:17:25.759Z,2.09
2023-01-19T15:21:28.729Z,1.89
2023-01-19T15:25:31.656Z,1.68
2023-01-19T15:29:34.615Z,1.66
2023-01-19T15:33:37.447Z,1.67
2023-01-19T15:37:40.538Z,1.63
2023-01-19T15:41:46.531Z,1.47
2023-01-19T15:46:00.766Z,1.38
2023-01-19T15:50:04.012Z,1.25
2023-01-19T15:54:12.582Z,1.19
2023-01-19T15:58:15.826Z,1.10
2023-01-19T16:02:19.016Z,1.08
2023-01-19T16:06:22.137Z,1.11
2023-01-19T16:10:25.714Z,1.06
2023-01-19T16:14:28.685Z,1.01
2023-01-19T16:18:31.854Z,0.96
2023-01-19T16:22:34.854Z,0.94
2023-01-19T16:26:37.864Z,0.84
2023-01-19T16:30:40.918Z,0.70
2023-01-19T16:34:44.703Z,0.57
2023-01-19T16:38:47.577Z,0.52
2023-01-19T16:42:51.178Z,0.51
2023-01-19T16:46:54.562Z,0.47
2023-01-19T16:51:01.315Z,0.46
2023-01-19T16:55:08.914Z,0.39
2023-01-19T16:59:14.688Z,0.26
2023-01-19T17:03:17.620Z,0.19
2023-01-19T17:07:20.565Z,0.11
2023-01-19T17:11:26.877Z,0.14
2023-01-19T17:15:31.541Z,0.28
2023-01-19T17:19:34.468Z,0.47
2023-01-19T17:23:42.086Z,0.60
2023-01-19T17:27:44.991Z,0.64
2023-01-19T17:31:50.369Z,0.63
2023-01-19T17:35:53.399Z,0.68
2023-01-19T17:39:56.746Z,0.76
2023-01-19T17:44:00.941Z,0.76
2023-01-19T17:48:05.168Z,0.75
2023-01-19T17:52:08.205Z,0.78
2023-01-19T17:56:14.561Z,0.83
2023-01-19T18:00:18.314Z,0.90
2023-01-19T18:04:21.207Z,0.91
2023-01-19T18:08:24.789Z,0.94
2023-01-19T18:12:27.669Z,0.94
2023-01-19T18:16:31.001Z,0.93
2023-01-19T18:20:33.916Z,0.92
2023-01-19T18:24:40.916Z,0.89
2023-01-19T18:28:44.401Z,0.89
2023-01-19T18:32:47.287Z,0.69
2023-01-19T18:36:50.138Z,0.57
2023-01-19T18:41:14.000Z,0.59
2023-01-19T18:45:17.575Z,0.65
2023-01-19T18:49:20.394Z,0.70
2023-01-19T18:53:23.892Z,0.74
2023-01-19T18:57:27.124Z,0.50
2023-01-19T19:01:39.259Z,0.12
2023-01-19T19:05:42.481Z,-0.13
2023-01-19T19:09:45.655Z,-0.33
2023-01-19T19:13:53.691Z,-0.42
2023-01-19T19:17:56.793Z,-0.38
2023-01-19T19:21:59.941Z,-0.37
2023-01-19T19:26:05.186Z,-0.37
2023-01-19T19:30:11.308Z,-0.40
2023-01-19T19:34:15.934Z,-0.30
2023-01-19T19:38:18.807Z,-0.20
2023-01-19T19:42:22.006Z,-0.09
2023-01-19T19:46:26.188Z,0.04
2023-01-19T19:50:29.337Z,0.14
2023-01-19T19:54:32.325Z,0.22
2023-01-19T19:58:35.923Z,0.33
2023-01-19T20:02:38.891Z,0.44
2023-01-19T20:06:44.874Z,0.48
2023-01-19T20:10:48.052Z,0.30
2023-01-19T20:14:50.911Z,0.08
2023-01-19T20:18:54.383Z,-0.11
2023-01-19T20:22:59.092Z,-0.27
2023-01-19T20:27:02.313Z,-0.43
2023-01-19T20:31:19.270Z,-0.55
2023-01-19T20:35:22.424Z,-0.57
2023-01-19T20:39:25.578Z,-0.53
2023-01-19T20:43:29.688Z,-0.44
2023-01-19T20:47:32.690Z,-0.32
2023-01-19T20:51:37.397Z,-0.18
2023-01-19T20:55:40.575Z,-0.01
2023-01-19T20:59:43.499Z,0.03
2023-01-19T21:03:47.195Z,0.12
2023-01-19T21:07:51.146Z,0.25
2023-01-19T21:11:57.736Z,0.20
2023-01-19T21:16:01.909Z,0.20
2023-01-19T21:20:07.213Z,0.31
2023-01-19T21:24:11.929Z,0.44
2023-01-19T21:28:15.769Z,0.56
2023-01-19T21:32:19.141Z,0.69
2023-01-19T21:36:25.551Z,0.80
2023-01-19T21:40:30.039Z,0.83
2023-01-19T21:44:34.189Z,0.83
2023-01-19T21:48:37.992Z,0.88
2023-01-19T21:52:44.031Z,0.94
2023-01-19T21:56:47.564Z,0.99
2023-01-19T22:00:51.490Z,1.03
2023-01-19T22:04:59.129Z,0.98
2023-01-19T22:09:05.713Z,0.94
2023-01-19T22:17:31.889Z,0.89
2023-01-19T22:21:36.443Z,0.78
2023-01-19T22:25:40.871Z,0.79
2023-01-19T22:29:44.658Z,0.70
2023-01-19T22:33:54.255Z,0.67
2023-01-19T22:37:57.128Z,0.72
2023-01-19T22:42:00.126Z,0.69
2023-01-19T22:46:04.154Z,0.69
2023-01-19T22:50:08.693Z,0.49
2023-01-19T22:54:12.727Z,0.21
2023-01-19T22:58:15.446Z,0.11
2023-01-19T23:02:20.683Z,0.13
2023-01-19T23:06:29.161Z,0.20
2023-01-19T23:10:32.194Z,0.29
2023-01-19T23:14:36.263Z,0.33
2023-01-19T23:18:39.693Z,0.29
2023-01-19T23:22:46.763Z,0.34
2023-01-19T23:26:50.528Z,0.46
2023-01-19T23:30:53.275Z,0.65
2023-01-19T23:34:56.654Z,0.80
2023-01-19T23:39:02.210Z,0.83
2023-01-19T23:43:05.270Z,0.77
2023-01-19T23:47:08.198Z,0.77
2023-01-19T23:51:12.722Z,0.84
2023-01-19T23:55:16.947Z,0.90
2023-01-19T23:59:19.638Z,0.83
